Avery, Arkansas
Current Conditions -  °F | °C
As of 11:53 PM on Thursday 27 Nov 2014 (Local Time) from KLLQ Reporting Station
Clear Clear  
Wind Chill:   Ceiling: Unl
Heat Index:   Visibility: 10mi
Dew Point: -2°   Wind: 0mph
Humidity: 88%   Direction: NA
Pressure: 30.45"   Gusts: NA
Location:  33.9283°N, 91.468°W
Report Text: KLLQ 280553Z AUTO 00000KT 10SM CLR 00/M02 A3045 RMK AO2 SLP311 T00001017 10050 20000 400940000 58009
Loading
Personal Weather Stations






























Interactive Weather Map New forecast layout! Learn more

10-Day Weather Forecast

Advertisements
Track Severe Weather on mobile